Time;durP1;ratioP1;P1;durP2;ratioP2;P2;SDS_P1;SDS_P2;PMS_P1;PMS_P2;Temp;Humidity;BMP_temperature;BMP_pressure;BME280_temperature;BME280_humidity;BME280_pressure;Samples;Min_cycle;Max_cycle;Signal;HPM_P1;HPM_P2
2022/11/03 00:01:45;;;;;;;14.30;3.05;;;11.20;99.90;;;;;;4954060;29;20046;-69
2022/11/03 00:04:15;;;;;;;15.13;2.95;;;11.30;99.90;;;;;;4949997;29;20057;-69
2022/11/03 00:06:42;;;;;;;11.20;2.78;;;11.30;99.90;;;;;;4954263;28;20058;-68
2022/11/03 00:09:10;;;;;;;15.68;2.80;;;11.30;99.90;;;;;;4954288;29;20090;-68
2022/11/03 00:11:38;;;;;;;15.95;3.47;;;11.30;99.90;;;;;;4947695;28;20039;-68
2022/11/03 00:14:04;;;;;;;12.48;2.72;;;11.30;99.90;;;;;;4954864;28;20043;-69
2022/11/03 00:16:30;;;;;;;12.32;2.85;;;11.20;99.90;;;;;;4936730;29;20095;-69
2022/11/03 00:18:56;;;;;;;9.40;3.10;;;11.20;99.90;;;;;;4949531;29;20150;-68
2022/11/03 00:21:22;;;;;;;12.77;3.10;;;11.20;99.90;;;;;;4944230;29;20043;-68
2022/11/03 00:23:48;;;;;;;12.00;2.67;;;11.30;99.90;;;;;;4954572;29;20553;-69
2022/11/03 00:26:22;;;;;;;21.45;3.88;;;11.20;99.90;;;;;;4954525;29;20082;-68
2022/11/03 00:28:50;;;;;;;14.15;2.80;;;11.20;99.90;;;;;;4942389;29;20490;-68
2022/11/03 00:31:24;;;;;;;13.07;2.80;;;11.10;99.90;;;;;;4952440;29;20494;-68
2022/11/03 00:33:50;;;;;;;14.52;2.83;;;11.10;99.90;;;;;;4954271;29;20043;-69
2022/11/03 00:36:20;;;;;;;12.88;2.67;;;11.10;99.90;;;;;;4943402;28;20049;-68
2022/11/03 00:38:46;;;;;;;11.65;2.80;;;11.20;99.90;;;;;;4942469;29;20044;-70
2022/11/03 00:41:13;;;;;;;8.38;3.30;;;11.10;99.90;;;;;;4953468;29;20046;-69
2022/11/03 00:43:39;;;;;;;14.38;3.28;;;11.10;99.90;;;;;;4954315;29;20498;-68
2022/11/03 00:46:06;;;;;;;14.93;3.35;;;11.00;99.90;;;;;;4941266;28;20027;-69
2022/11/03 00:48:34;;;;;;;15.80;3.25;;;11.00;99.90;;;;;;4954032;29;20426;-69
2022/11/03 00:51:09;;;;;;;12.15;2.65;;;10.90;99.90;;;;;;4955213;28;20071;-69
2022/11/03 00:53:41;;;;;;;13.15;3.10;;;10.90;99.90;;;;;;4937954;29;20050;-69
2022/11/03 00:56:09;;;;;;;16.10;3.20;;;10.90;99.90;;;;;;4952547;28;20383;-69
2022/11/03 00:58:35;;;;;;;11.80;3.10;;;10.90;99.90;;;;;;4953826;29;20051;-68
2022/11/03 01:01:07;;;;;;;13.60;3.83;;;10.80;99.90;;;;;;4942384;29;20039;-67
2022/11/03 01:03:35;;;;;;;12.00;3.25;;;10.80;99.90;;;;;;4946131;29;20043;-68
2022/11/03 01:08:45;;;;;;;13.65;3.83;;;10.80;99.90;;;;;;4952325;29;20185;-69
2022/11/03 01:13:58;;;;;;;9.63;2.63;;;10.90;99.90;;;;;;4953684;29;20050;-68
2022/11/03 01:16:24;;;;;;;16.42;3.20;;;10.80;99.90;;;;;;4954884;28;20047;-69
2022/11/03 01:18:50;;;;;;;9.88;3.00;;;10.80;99.90;;;;;;4943589;28;20039;-68
2022/11/03 01:21:15;;;;;;;14.65;3.25;;;10.80;99.90;;;;;;4949663;29;20067;-68
2022/11/03 01:23:41;;;;;;;10.60;3.33;;;10.80;99.90;;;;;;4953238;29;20129;-68
2022/11/03 01:26:08;;;;;;;13.18;2.80;;;10.80;99.90;;;;;;4943463;28;20062;-68
2022/11/03 01:28:35;;;;;;;10.10;2.80;;;10.80;99.90;;;;;;4938296;29;20047;-68
2022/11/03 01:31:10;;;;;;;10.20;2.83;;;10.80;99.90;;;;;;4952728;29;20043;-68
2022/11/03 01:33:37;;;;;;;14.73;2.78;;;10.80;99.90;;;;;;4951618;28;20090;-69
2022/11/03 01:36:02;;;;;;;14.77;3.33;;;10.80;99.90;;;;;;4945491;29;20047;-69
2022/11/03 01:38:33;;;;;;;10.77;3.08;;;10.80;99.90;;;;;;4954210;29;20039;-69
2022/11/03 01:40:59;;;;;;;13.18;3.00;;;10.80;99.90;;;;;;4952887;29;20561;-69
2022/11/03 01:43:27;;;;;;;10.88;3.05;;;10.90;99.90;;;;;;4943282;29;20054;-68
2022/11/03 01:46:04;;;;;;;10.07;2.95;;;10.90;99.90;;;;;;4936359;29;20027;-69
2022/11/03 01:48:31;;;;;;;12.82;3.10;;;10.90;99.90;;;;;;4954193;29;20052;-68
2022/11/03 01:50:58;;;;;;;17.90;3.35;;;10.90;99.90;;;;;;4948879;29;20061;-69
2022/11/03 01:53:23;;;;;;;12.75;3.00;;;10.90;99.90;;;;;;4945450;29;20486;-69
2022/11/03 01:55:50;;;;;;;12.32;2.60;;;11.00;99.90;;;;;;4952548;29;20126;-68
2022/11/03 01:58:28;;;;;;;9.70;2.80;;;11.00;99.90;;;;;;4952900;29;20062;-69
2022/11/03 02:00:57;;;;;;;13.20;2.80;;;11.10;99.90;;;;;;4951328;29;20122;-69
2022/11/03 02:03:27;;;;;;;11.95;3.35;;;11.10;99.90;;;;;;4953671;29;20494;-69
2022/11/03 02:05:54;;;;;;;13.68;2.97;;;11.10;99.90;;;;;;4954034;28;20126;-68
2022/11/03 02:08:22;;;;;;;13.95;2.80;;;11.10;99.90;;;;;;4951449;29;20039;-70
2022/11/03 02:10:49;;;;;;;14.57;3.13;;;11.00;99.90;;;;;;4937198;29;20046;-69
2022/11/03 02:13:21;;;;;;;11.45;2.67;;;11.00;99.90;;;;;;4932573;29;20116;-69
2022/11/03 02:15:54;;;;;;;9.82;3.13;;;11.00;99.90;;;;;;4950000;28;20039;-69
2022/11/03 02:18:23;;;;;;;8.82;2.80;;;11.00;99.90;;;;;;4951457;29;20413;-68
2022/11/03 02:20:58;;;;;;;17.88;3.28;;;11.00;99.90;;;;;;4953281;28;20035;-68
2022/11/03 02:23:53;;;;;;;16.33;3.40;;;11.00;99.90;;;;;;4952280;29;20083;-69
2022/11/03 02:26:18;;;;;;;13.35;2.78;;;11.00;99.90;;;;;;4941334;23;20146;-62
2022/11/03 02:28:44;;;;;;;9.57;2.95;;;11.00;99.90;;;;;;4947992;28;20104;-67
2022/11/03 02:31:27;;;;;;;11.95;2.78;;;11.00;99.90;;;;;;4950281;28;20039;-67
2022/11/03 02:34:05;;;;;;;12.18;2.95;;;11.00;99.90;;;;;;4935252;28;20044;-67
2022/11/03 02:36:41;;;;;;;10.85;3.28;;;11.10;99.90;;;;;;4948589;29;20035;-66
2022/11/03 02:39:44;;;;;;;13.93;3.08;;;11.00;99.90;;;;;;4953818;28;20393;-67
2022/11/03 02:42:12;;;;;;;14.90;3.55;;;11.00;99.90;;;;;;4925833;29;20513;-67
2022/11/03 02:44:38;;;;;;;12.93;3.05;;;11.10;99.90;;;;;;4948322;28;20107;-67
2022/11/03 02:47:08;;;;;;;12.40;3.13;;;11.10;99.90;;;;;;4953453;28;20039;-67
2022/11/03 02:49:38;;;;;;;15.60;3.17;;;11.20;99.90;;;;;;4946003;28;20379;-67
2022/11/03 02:52:06;;;;;;;14.55;3.10;;;11.20;99.90;;;;;;4945107;29;20478;-67
2022/11/03 02:54:39;;;;;;;16.42;3.25;;;11.20;99.90;;;;;;4953011;28;20047;-67
2022/11/03 02:57:15;;;;;;;13.05;3.42;;;11.20;99.90;;;;;;4947068;28;20047;-63
2022/11/03 02:59:51;;;;;;;11.23;3.20;;;11.20;99.90;;;;;;4940199;29;20039;-67
2022/11/03 03:02:22;;;;;;;11.85;3.08;;;11.20;99.90;;;;;;4953168;28;20567;-67
2022/11/03 03:04:54;;;;;;;10.15;2.80;;;11.20;99.90;;;;;;4942609;28;20035;-66
2022/11/03 03:07:40;;;;;;;;;;;11.10;99.90;;;;;;4936348;29;20036;-66
2022/11/03 03:10:11;;;;;;;9.40;3.60;;;11.10;99.90;;;;;;4952947;28;19919;-66
2022/11/03 03:12:40;;;;;;;14.40;3.55;;;11.00;99.90;;;;;;4968031;28;20511;-67
2022/11/03 03:15:07;;;;;;;15.93;3.20;;;11.00;99.90;;;;;;4939095;28;20086;-66
2022/11/03 03:17:50;;;;;;;9.73;3.05;;;11.00;99.90;;;;;;4952754;28;20039;-67
2022/11/03 03:20:24;;;;;;;18.17;3.08;;;11.00;99.90;;;;;;4953607;28;20126;-67
2022/11/03 03:22:56;;;;;;;10.75;3.50;;;11.00;99.90;;;;;;4940506;28;20059;-67
2022/11/03 03:25:40;;;;;;;15.27;2.92;;;11.00;99.90;;;;;;4950801;28;20102;-67
2022/11/03 03:28:12;;;;;;;12.07;3.40;;;11.00;99.90;;;;;;4951936;29;20110;-67
2022/11/03 03:30:40;;;;;;;11.57;3.25;;;11.00;99.90;;;;;;4942220;28;20458;-66
2022/11/03 03:33:07;;;;;;;12.43;3.33;;;11.00;99.90;;;;;;4944128;29;20082;-64
2022/11/03 03:35:35;;;;;;;10.77;3.00;;;11.00;99.90;;;;;;4953056;28;20051;-64
2022/11/03 03:38:05;;;;;;;9.48;3.25;;;11.00;99.90;;;;;;4946172;28;20047;-64
2022/11/03 03:40:35;;;;;;;14.60;3.00;;;11.00;99.90;;;;;;4946758;29;20054;-67
2022/11/03 03:43:05;;;;;;;12.98;3.30;;;10.90;99.90;;;;;;4954271;28;20042;-65
2022/11/03 03:45:33;;;;;;;13.02;2.80;;;10.90;99.90;;;;;;4956604;29;20564;-66
2022/11/03 03:47:58;;;;;;;10.30;3.40;;;10.90;99.90;;;;;;4952889;29;20082;-67
2022/11/03 03:50:28;;;;;;;11.38;3.38;;;10.90;99.90;;;;;;4948215;28;20285;-66
2022/11/03 03:52:59;;;;;;;8.65;3.20;;;10.90;99.90;;;;;;4955713;28;20039;-66
2022/11/03 03:55:35;;;;;;;15.52;3.30;;;10.90;99.90;;;;;;4951779;28;20055;-67
2022/11/03 03:58:02;;;;;;;12.77;3.22;;;10.90;99.90;;;;;;4947978;29;20042;-66
2022/11/03 04:00:28;;;;;;;12.23;3.20;;;10.90;99.90;;;;;;4956125;28;20110;-64
2022/11/03 04:02:56;;;;;;;13.90;3.70;;;11.00;99.90;;;;;;4956121;28;20122;-65
2022/11/03 04:05:22;;;;;;;11.80;2.92;;;11.00;99.90;;;;;;4942792;28;20046;-64
2022/11/03 04:07:47;;;;;;;12.35;3.17;;;11.00;99.90;;;;;;4954022;28;20039;-64
2022/11/03 04:10:15;;;;;;;12.82;3.25;;;11.00;99.90;;;;;;4955907;29;20398;-67
2022/11/03 04:23:54;;;;;;;15.13;3.92;;;10.90;99.90;;;;;;4955340;29;20043;-66
2022/11/03 04:26:21;;;;;;;15.88;3.83;;;10.90;99.90;;;;;;4955564;28;20039;-64
2022/11/03 04:28:48;;;;;;;13.88;3.30;;;10.90;99.90;;;;;;4940102;28;20489;-64
2022/11/03 04:31:16;;;;;;;12.10;3.17;;;10.90;99.90;;;;;;4949128;29;20039;-66
2022/11/03 04:33:43;;;;;;;12.48;3.38;;;10.90;99.90;;;;;;4955370;28;20034;-67
2022/11/03 04:36:19;;;;;;;10.00;3.20;;;10.90;99.90;;;;;;4954444;28;20098;-64
2022/11/03 04:38:45;;;;;;;14.40;3.28;;;10.80;99.90;;;;;;4950594;28;20042;-64
2022/11/03 04:41:17;;;;;;;15.88;3.03;;;10.90;99.90;;;;;;4954660;28;20083;-64
2022/11/03 04:43:44;;;;;;;10.63;3.30;;;10.90;99.90;;;;;;4955642;28;20043;-64
2022/11/03 04:46:14;;;;;;;11.88;3.45;;;10.80;99.90;;;;;;4940499;28;20035;-66
2022/11/03 04:48:40;;;;;;;12.07;3.60;;;10.90;99.90;;;;;;4941478;29;20063;-67
2022/11/03 04:51:16;;;;;;;16.15;3.55;;;10.90;99.90;;;;;;4954844;28;20027;-66
2022/11/03 04:54:05;;;;;;;16.10;3.28;;;10.90;99.90;;;;;;4951708;28;20107;-66
2022/11/03 04:56:32;;;;;;;13.52;3.22;;;10.90;99.90;;;;;;4941803;29;20093;-66
2022/11/03 04:58:58;;;;;;;13.07;3.30;;;10.90;99.90;;;;;;4954887;28;20070;-67
2022/11/03 05:01:24;;;;;;;11.63;3.40;;;10.90;99.90;;;;;;4955128;28;20062;-67
2022/11/03 05:03:55;;;;;;;12.95;3.20;;;11.00;99.90;;;;;;4942972;28;20046;-67
2022/11/03 05:06:23;;;;;;;14.75;3.55;;;11.00;99.90;;;;;;4953216;28;20474;-65
2022/11/03 05:08:55;;;;;;;11.18;3.33;;;11.00;99.90;;;;;;4955479;28;20043;-66
2022/11/03 05:11:31;;;;;;;10.52;2.67;;;11.00;99.90;;;;;;4948293;28;20087;-67
2022/11/03 05:14:14;;;;;;;14.32;3.40;;;11.00;99.90;;;;;;4950433;29;20070;-66
2022/11/03 05:16:40;;;;;;;14.07;3.35;;;11.00;99.90;;;;;;4947048;29;20078;-67
2022/11/03 05:19:17;;;;;;;11.20;3.35;;;11.00;99.90;;;;;;4947303;28;20053;-65
2022/11/03 05:21:42;;;;;;;11.00;3.05;;;11.00;99.90;;;;;;4944816;28;20086;-65
2022/11/03 05:24:13;;;;;;;14.40;3.75;;;11.00;99.90;;;;;;4954334;28;20039;-65
2022/11/03 05:26:39;;;;;;;10.85;3.20;;;11.00;99.90;;;;;;4954454;28;20078;-65
2022/11/03 05:29:10;;;;;;;12.63;3.03;;;11.10;99.90;;;;;;4950590;28;20130;-66
2022/11/03 05:31:37;;;;;;;15.48;3.90;;;11.10;99.90;;;;;;4954062;28;20039;-66
2022/11/03 05:34:25;;;;;;;13.55;4.50;;;11.10;99.90;;;;;;4954311;28;20030;-66
2022/11/03 05:36:51;;;;;;;10.77;3.28;;;11.10;99.90;;;;;;4938050;28;20458;-65
2022/11/03 05:39:36;;;;;;;13.48;3.65;;;11.10;99.90;;;;;;4944897;29;20051;-65
2022/11/03 05:42:11;;;;;;;15.80;3.53;;;11.00;99.90;;;;;;4954097;28;20039;-65
2022/11/03 05:44:39;;;;;;;12.85;3.33;;;11.10;99.90;;;;;;4949856;28;20043;-65
2022/11/03 05:47:17;;;;;;;13.07;3.35;;;11.00;99.90;;;;;;4942145;29;20091;-66
2022/11/03 05:49:42;;;;;;;13.48;3.60;;;11.10;99.90;;;;;;4943788;29;20402;-64
2022/11/03 05:52:19;;;;;;;13.13;3.20;;;11.00;99.90;;;;;;4949984;28;20050;-65
2022/11/03 05:54:45;;;;;;;12.02;3.22;;;11.10;99.90;;;;;;4949857;28;20035;-64
2022/11/03 05:57:13;;;;;;;13.02;3.70;;;11.10;99.90;;;;;;4953924;28;20085;-64
2022/11/03 05:59:39;;;;;;;22.70;4.13;;;11.10;99.90;;;;;;4949011;28;20054;-64
2022/11/03 06:02:23;;;;;;;11.45;3.47;;;11.10;99.90;;;;;;4938384;29;20043;-66
2022/11/03 06:04:49;;;;;;;17.63;4.53;;;11.10;99.90;;;;;;4947777;28;20058;-65
2022/11/03 06:07:20;;;;;;;16.30;3.42;;;11.10;99.90;;;;;;4953947;29;20066;-67
2022/11/03 06:09:45;;;;;;;11.75;3.58;;;11.00;99.90;;;;;;4938176;29;20042;-65
2022/11/03 06:12:16;;;;;;;9.02;3.38;;;11.00;99.90;;;;;;4942233;29;20036;-66
2022/11/03 06:14:42;;;;;;;10.38;3.58;;;11.00;99.90;;;;;;4952024;28;20144;-66
2022/11/03 06:17:27;;;;;;;13.93;3.63;;;11.00;99.90;;;;;;4953703;28;20517;-66
2022/11/03 06:19:58;;;;;;;10.48;3.05;;;11.00;99.90;;;;;;4947847;28;20050;-68
2022/11/03 06:22:29;;;;;;;14.15;3.80;;;11.00;99.90;;;;;;4941795;28;20505;-66
2022/11/03 06:25:00;;;;;;;12.90;3.97;;;11.00;99.90;;;;;;4950227;28;20412;-67
2022/11/03 06:27:29;;;;;;;9.18;3.53;;;11.00;99.90;;;;;;4930917;28;20039;-66
2022/11/03 06:29:59;;;;;;;13.88;3.35;;;11.00;99.90;;;;;;4929250;29;20133;-66
2022/11/03 06:32:24;;;;;;;13.90;3.50;;;11.00;99.90;;;;;;4949164;29;20043;-66
2022/11/03 06:34:56;;;;;;;13.60;3.67;;;11.00;99.90;;;;;;4950108;28;20042;-67
2022/11/03 06:37:30;;;;;;;18.33;3.63;;;11.00;99.90;;;;;;4942502;28;20048;-66
2022/11/03 06:40:23;;;;;;;12.93;4.18;;;11.00;99.90;;;;;;4941249;29;20071;-66
2022/11/03 06:42:50;;;;;;;12.18;3.38;;;11.00;99.90;;;;;;4942306;28;20422;-66
2022/11/03 06:45:21;;;;;;;14.65;3.92;;;11.10;99.90;;;;;;4949483;28;20102;-66
2022/11/03 06:47:46;;;;;;;12.20;3.67;;;11.10;99.90;;;;;;4951555;28;20070;-66
2022/11/03 06:50:28;;;;;;;12.73;3.75;;;11.10;99.90;;;;;;4952246;29;20138;-66
2022/11/03 06:52:55;;;;;;;11.43;3.20;;;11.10;99.90;;;;;;4942997;28;20035;-66
2022/11/03 06:55:27;;;;;;;11.13;3.42;;;11.10;99.90;;;;;;4951878;29;20039;-67
2022/11/03 06:57:58;;;;;;;13.10;3.85;;;11.10;99.90;;;;;;4953427;28;20039;-66
2022/11/03 07:00:25;;;;;;;;;;;11.10;99.90;;;;;;4949705;28;20043;-68
2022/11/03 07:03:34;;;;;;;15.50;3.70;;;11.10;99.90;;;;;;4948835;28;19918;-67
2022/11/03 07:06:13;;;;;;;12.07;3.33;;;11.10;99.90;;;;;;4934015;29;20050;-64
2022/11/03 07:08:48;;;;;;;15.15;4.15;;;11.20;99.90;;;;;;4947472;29;20035;-67
2022/11/03 07:11:29;;;;;;;13.68;3.45;;;11.20;99.90;;;;;;4950610;29;20045;-66
2022/11/03 07:13:57;;;;;;;13.10;3.55;;;11.20;99.90;;;;;;4948506;28;21063;-66
2022/11/03 07:16:30;;;;;;;10.57;3.65;;;11.20;99.90;;;;;;4940221;28;20061;-66
2022/11/03 07:18:59;;;;;;;13.98;4.00;;;11.30;99.90;;;;;;4956379;28;20046;-66
2022/11/03 07:21:30;;;;;;;13.65;3.38;;;11.40;99.90;;;;;;4956452;28;20043;-66
2022/11/03 07:23:59;;;;;;;13.52;4.10;;;11.30;99.90;;;;;;4954504;28;20054;-66
2022/11/03 07:26:25;;;;;;;17.25;3.80;;;11.40;99.90;;;;;;4947433;29;20093;-66
2022/11/03 07:28:51;;;;;;;11.75;3.90;;;11.40;99.90;;;;;;4956607;28;20043;-66
2022/11/03 07:31:24;;;;;;;14.02;3.60;;;11.50;99.90;;;;;;4956879;28;20099;-66
2022/11/03 07:33:56;;;;;;;11.27;3.33;;;11.50;99.90;;;;;;4944995;28;20031;-66
2022/11/03 07:36:24;;;;;;;15.68;4.35;;;11.60;99.90;;;;;;4954684;28;20494;-66
2022/11/03 07:38:52;;;;;;;11.70;3.35;;;11.60;99.90;;;;;;4956973;28;20054;-66
2022/11/03 07:41:21;;;;;;;17.90;3.90;;;11.70;99.90;;;;;;4956456;28;20494;-66
2022/11/03 07:43:58;;;;;;;12.98;4.18;;;11.70;99.90;;;;;;4947986;28;20101;-66
2022/11/03 07:46:25;;;;;;;15.82;4.32;;;11.80;99.90;;;;;;4954773;28;20043;-66
2022/11/03 07:48:58;;;;;;;16.00;3.78;;;11.90;99.90;;;;;;4951628;28;20039;-66
2022/11/03 07:51:25;;;;;;;13.15;3.80;;;11.90;99.90;;;;;;4945679;29;20038;-66
2022/11/03 07:54:31;;;;;;;18.77;4.30;;;11.90;99.90;;;;;;4956083;28;20043;-66
2022/11/03 07:57:17;;;;;;;14.20;4.07;;;12.00;99.90;;;;;;4954630;28;20098;-65
2022/11/03 07:59:50;;;;;;;14.25;3.90;;;12.00;99.90;;;;;;4949673;29;20506;-66
2022/11/03 08:02:47;;;;;;;16.20;3.97;;;12.10;99.90;;;;;;4955900;28;20043;-66
2022/11/03 08:05:12;;;;;;;14.48;3.92;;;12.10;99.90;;;;;;4953568;28;20047;-66
2022/11/03 08:07:38;;;;;;;12.40;3.58;;;12.20;99.90;;;;;;4951930;29;20050;-66
2022/11/03 08:10:06;;;;;;;12.95;3.65;;;12.20;99.90;;;;;;4947508;29;20031;-65
2022/11/03 08:12:31;;;;;;;15.05;3.55;;;12.30;99.90;;;;;;4945571;29;20031;-66
2022/11/03 08:14:57;;;;;;;12.80;3.75;;;12.40;99.90;;;;;;4955798;28;20523;-67
2022/11/03 08:17:23;;;;;;;19.55;3.60;;;12.40;99.90;;;;;;4955470;28;20042;-66
2022/11/03 08:19:48;;;;;;;12.43;3.53;;;12.50;99.90;;;;;;4946400;28;20051;-66
2022/11/03 08:22:14;;;;;;;13.60;3.58;;;12.60;99.90;;;;;;4943677;29;20036;-65
2022/11/03 08:24:40;;;;;;;11.73;3.88;;;12.70;99.90;;;;;;4947236;28;20037;-66
2022/11/03 08:27:05;;;;;;;16.55;3.70;;;12.70;99.90;;;;;;4995282;23;20497;-67
2022/11/03 08:29:31;;;;;;;12.75;3.97;;;12.90;99.90;;;;;;4954992;28;20071;-66
2022/11/03 08:31:56;;;;;;;16.92;3.90;;;12.90;99.90;;;;;;4946970;28;20035;-66
2022/11/03 08:34:22;;;;;;;15.93;3.72;;;13.00;99.90;;;;;;4955150;29;20030;-66
2022/11/03 08:36:48;;;;;;;13.10;3.67;;;13.00;99.90;;;;;;4955959;28;20046;-66
2022/11/03 08:39:13;;;;;;;13.48;3.42;;;13.00;99.90;;;;;;4949365;28;20031;-66
2022/11/03 08:41:39;;;;;;;10.88;3.83;;;13.10;99.90;;;;;;4945841;29;20087;-66
2022/11/03 08:44:04;;;;;;;12.52;3.55;;;13.10;99.90;;;;;;4944288;28;20054;-66
2022/11/03 08:46:30;;;;;;;11.23;3.42;;;13.20;99.90;;;;;;4953731;28;20043;-66
2022/11/03 08:48:56;;;;;;;12.32;3.85;;;13.20;99.90;;;;;;4955192;29;20126;-67
2022/11/03 08:51:21;;;;;;;16.73;4.28;;;13.20;99.90;;;;;;4947304;28;20035;-66
2022/11/03 08:53:52;;;;;;;8.57;3.17;;;13.30;99.90;;;;;;4943266;28;20114;-65
2022/11/03 08:56:19;;;;;;;15.15;3.95;;;13.30;99.90;;;;;;4942229;28;20082;-64
2022/11/03 08:58:45;;;;;;;14.50;4.45;;;13.30;99.90;;;;;;4940988;28;20066;-66
2022/11/03 09:01:11;;;;;;;8.52;3.78;;;13.40;99.90;;;;;;4946284;29;20074;-65
2022/11/03 09:03:38;;;;;;;15.07;3.75;;;13.40;99.90;;;;;;4954705;29;20043;-65
2022/11/03 09:06:03;;;;;;;10.93;3.63;;;13.50;99.90;;;;;;4949533;28;20035;-65
2022/11/03 09:08:29;;;;;;;11.23;3.70;;;13.50;99.90;;;;;;4944441;29;20770;-65
2022/11/03 09:10:55;;;;;;;13.82;3.40;;;13.60;99.90;;;;;;4944193;28;20566;-65
2022/11/03 09:13:20;;;;;;;9.75;3.22;;;13.60;99.90;;;;;;4935932;28;20466;-65
2022/11/03 09:15:46;;;;;;;12.93;3.85;;;13.70;99.90;;;;;;4953291;28;20039;-65
2022/11/03 09:18:11;;;;;;;11.20;3.35;;;13.70;99.90;;;;;;4953873;29;20035;-65
2022/11/03 09:20:37;;;;;;;12.30;3.40;;;13.80;99.90;;;;;;4951808;28;20055;-65
2022/11/03 09:23:02;;;;;;;14.00;3.28;;;13.80;99.90;;;;;;4947048;28;20043;-66
2022/11/03 09:25:28;;;;;;;11.90;3.58;;;13.90;99.90;;;;;;4943866;28;20498;-65
2022/11/03 09:27:54;;;;;;;10.15;3.58;;;14.00;99.90;;;;;;4951689;29;20031;-66
2022/11/03 09:30:19;;;;;;;14.82;3.88;;;14.10;99.90;;;;;;4949869;28;20425;-66
2022/11/03 09:32:45;;;;;;;11.20;2.92;;;14.20;99.90;;;;;;4950458;29;20081;-66
2022/11/03 09:35:15;;;;;;;10.65;3.35;;;14.40;99.90;;;;;;4954010;28;20039;-66
2022/11/03 09:37:40;;;;;;;19.13;3.20;;;14.50;99.90;;;;;;4954538;29;20128;-65
2022/11/03 09:40:08;;;;;;;9.75;3.17;;;14.50;99.90;;;;;;4939437;28;20051;-66
2022/11/03 09:42:35;;;;;;;15.88;3.47;;;14.70;99.90;;;;;;4927704;29;20129;-66
2022/11/03 09:45:03;;;;;;;10.93;3.10;;;14.80;99.90;;;;;;4930912;28;20039;-66
2022/11/03 09:47:34;;;;;;;10.57;3.67;;;14.90;99.90;;;;;;4936251;28;20069;-66
2022/11/03 09:50:00;;;;;;;;;;;14.80;99.90;;;;;;4952418;29;20406;-66
2022/11/03 09:52:26;;;;;;;10.60;3.05;;;14.80;99.90;;;;;;4953208;29;19918;-66
2022/11/03 09:54:54;;;;;;;11.73;3.33;;;14.80;99.90;;;;;;4947276;28;20486;-66
2022/11/03 09:57:20;;;;;;;18.02;3.10;;;14.80;99.90;;;;;;4937336;28;20043;-66
2022/11/03 09:59:48;;;;;;;9.88;3.40;;;14.80;99.90;;;;;;4954090;29;20055;-66
2022/11/03 10:02:30;;;;;;;12.93;3.10;;;15.00;99.90;;;;;;4949937;28;20054;-66
2022/11/03 10:04:59;;;;;;;9.52;2.72;;;15.00;99.90;;;;;;4948387;29;20042;-66
2022/11/03 10:07:27;;;;;;;11.70;4.15;;;15.10;99.90;;;;;;4953704;28;20058;-66
2022/11/03 10:09:53;;;;;;;11.25;2.92;;;15.10;99.90;;;;;;4953850;29;20039;-67
2022/11/03 10:12:22;;;;;;;15.75;3.65;;;15.20;99.90;;;;;;4947263;28;20043;-66
2022/11/03 10:14:47;;;;;;;12.13;3.00;;;15.20;99.90;;;;;;4963115;28;20627;-66
2022/11/03 10:17:24;;;;;;;8.90;2.72;;;15.20;99.90;;;;;;4953772;29;20046;-65
2022/11/03 10:19:51;;;;;;;13.63;3.13;;;15.20;99.90;;;;;;4945365;28;20046;-67
2022/11/03 10:22:20;;;;;;;10.55;2.97;;;15.10;99.90;;;;;;4947614;29;20109;-67
2022/11/03 10:24:47;;;;;;;7.30;2.55;;;15.10;99.90;;;;;;4953879;29;20110;-66
2022/11/03 10:27:21;;;;;;;12.00;3.25;;;15.10;99.90;;;;;;4944392;28;20099;-66
2022/11/03 10:30:07;;;;;;;8.70;2.90;;;15.20;99.90;;;;;;4945880;29;20043;-66
2022/11/03 10:32:33;;;;;;;9.13;2.95;;;15.30;99.90;;;;;;4941355;28;20039;-67
2022/11/03 10:34:59;;;;;;;10.82;2.90;;;15.30;99.90;;;;;;4949718;29;20038;-64
2022/11/03 10:37:26;;;;;;;10.30;2.80;;;15.30;99.90;;;;;;4942298;28;20039;-66
2022/11/03 10:39:57;;;;;;;7.60;3.00;;;15.30;99.90;;;;;;4943889;28;20035;-66
2022/11/03 10:42:24;;;;;;;9.43;3.10;;;15.40;99.90;;;;;;4944484;29;20045;-66
2022/11/03 10:44:54;;;;;;;11.85;3.30;;;15.30;99.90;;;;;;4942185;28;20493;-63
2022/11/03 10:47:31;;;;;;;12.63;3.10;;;15.40;99.90;;;;;;4951464;28;20079;-65
2022/11/03 10:49:57;;;;;;;8.02;2.90;;;15.40;99.90;;;;;;4953267;29;20043;-66
2022/11/03 10:52:26;;;;;;;8.63;2.92;;;15.50;99.90;;;;;;4952676;28;20031;-66
2022/11/03 10:54:54;;;;;;;13.70;3.10;;;15.60;99.90;;;;;;4920549;28;20118;-66
2022/11/03 10:57:21;;;;;;;12.00;3.17;;;15.80;99.90;;;;;;4953832;28;20078;-67
2022/11/03 10:59:49;;;;;;;11.40;2.78;;;15.90;99.90;;;;;;4934105;29;20086;-65
2022/11/03 11:02:21;;;;;;;11.23;3.15;;;15.90;99.90;;;;;;4959103;29;20043;-65
2022/11/03 11:04:58;;;;;;;9.40;2.75;;;16.00;99.90;;;;;;4960107;29;20043;-67
2022/11/03 11:07:31;;;;;;;7.50;2.63;;;16.10;99.90;;;;;;4954056;28;20047;-66
2022/11/03 11:10:11;;;;;;;10.77;2.95;;;16.00;99.90;;;;;;4955287;28;21037;-67
2022/11/03 11:12:36;;;;;;;13.40;3.05;;;16.00;99.90;;;;;;4969325;28;20043;-67
2022/11/03 11:15:23;;;;;;;6.47;2.53;;;15.90;99.90;;;;;;4959763;28;20082;-67
2022/11/03 11:17:49;;;;;;;9.40;2.85;;;15.80;99.90;;;;;;4948920;28;20114;-66
2022/11/03 11:20:21;;;;;;;10.98;2.80;;;15.80;99.90;;;;;;4951136;29;20115;-67
2022/11/03 11:22:50;;;;;;;8.93;2.78;;;15.70;99.90;;;;;;4959248;28;20733;-67
2022/11/03 11:25:18;;;;;;;9.02;3.40;;;15.70;99.90;;;;;;4939837;28;20039;-64
2022/11/03 11:27:44;;;;;;;9.32;3.30;;;15.60;99.90;;;;;;4941051;28;20046;-67
2022/11/03 11:30:19;;;;;;;8.65;2.92;;;15.50;99.90;;;;;;4959269;29;20054;-67
2022/11/03 11:32:44;;;;;;;11.52;3.00;;;15.50;99.90;;;;;;4950140;28;20031;-66
2022/11/03 11:35:15;;;;;;;8.63;2.50;;;15.60;99.90;;;;;;4958576;28;20461;-66
2022/11/03 11:37:41;;;;;;;9.65;2.80;;;15.60;99.90;;;;;;4958952;29;20446;-67
2022/11/03 11:40:33;;;;;;;11.00;2.90;;;15.60;99.90;;;;;;4953674;28;20106;-67
2022/11/03 11:43:01;;;;;;;12.48;3.03;;;15.50;99.90;;;;;;4948943;28;20042;-67
2022/11/03 11:46:04;;;;;;;10.15;3.13;;;15.60;99.90;;;;;;4957279;28;20118;-66
2022/11/03 11:48:30;;;;;;;8.43;2.90;;;15.60;99.90;;;;;;4958675;28;20497;-65
2022/11/03 11:51:00;;;;;;;9.60;2.70;;;15.60;99.90;;;;;;4958992;29;20046;-67
2022/11/03 11:53:36;;;;;;;9.23;2.45;;;15.60;99.90;;;;;;4950925;28;20047;-67
2022/11/03 11:56:02;;;;;;;8.25;2.70;;;15.50;99.90;;;;;;4958669;28;20094;-66
2022/11/03 11:58:49;;;;;;;11.20;2.80;;;15.50;99.90;;;;;;4958860;29;20075;-65
2022/11/03 12:01:35;;;;;;;8.60;2.75;;;15.50;99.90;;;;;;4950961;28;20082;-65
2022/11/03 12:04:16;;;;;;;9.07;2.97;;;15.50;99.90;;;;;;4938451;29;20070;-67
2022/11/03 12:06:42;;;;;;;9.65;2.58;;;15.50;99.90;;;;;;4955998;28;20061;-65
2022/11/03 12:09:26;;;;;;;9.27;2.88;;;15.50;99.90;;;;;;4944527;28;20036;-65
2022/11/03 12:11:59;;;;;;;6.97;2.55;;;15.50;99.90;;;;;;4953066;29;20082;-65
2022/11/03 12:14:28;;;;;;;7.88;3.33;;;15.50;99.90;;;;;;4955886;29;20067;-67
2022/11/03 12:16:54;;;;;;;10.27;2.85;;;15.50;99.90;;;;;;4942483;28;20046;-67
2022/11/03 12:19:40;;;;;;;11.13;3.00;;;15.50;99.90;;;;;;4948084;29;20050;-65
2022/11/03 12:22:38;;;;;;;7.88;2.70;;;15.50;99.90;;;;;;4955556;29;20078;-65
2022/11/03 12:25:07;;;;;;;9.20;2.80;;;15.50;99.90;;;;;;4933145;28;20466;-66
2022/11/03 12:27:35;;;;;;;10.48;2.90;;;15.50;99.90;;;;;;4931089;29;20428;-65
2022/11/03 12:30:05;;;;;;;7.20;3.03;;;15.50;99.90;;;;;;4955735;29;20469;-65
2022/11/03 12:32:31;;;;;;;7.47;2.70;;;15.50;99.90;;;;;;4945631;28;20054;-65
2022/11/03 12:34:57;;;;;;;9.43;3.00;;;15.50;99.90;;;;;;4954630;29;20071;-65
2022/11/03 12:37:23;;;;;;;9.75;2.67;;;15.50;99.90;;;;;;4955333;28;20078;-65
2022/11/03 12:39:48;;;;;;;11.82;2.90;;;15.70;99.90;;;;;;4955692;29;20043;-66
2022/11/03 12:42:14;;;;;;;8.50;2.50;;;15.80;99.90;;;;;;4942708;28;20106;-65
2022/11/03 12:44:40;;;;;;;6.78;2.28;;;15.90;99.90;;;;;;4932219;29;20513;-65
2022/11/03 12:47:05;;;;;;;6.43;2.42;;;16.00;99.90;;;;;;4955479;28;20051;-65
2022/11/03 12:49:31;;;;;;;10.93;2.50;;;16.10;99.90;;;;;;4952215;28;20043;-65
2022/11/03 12:52:04;;;;;;;7.75;2.47;;;16.20;99.90;;;;;;4949190;28;20078;-65
2022/11/03 12:54:30;;;;;;;9.10;2.70;;;16.30;99.90;;;;;;4954125;29;20039;-66
2022/11/03 12:56:56;;;;;;;7.05;2.03;;;16.40;99.90;;;;;;4955727;28;20043;-64
2022/11/03 12:59:22;;;;;;;7.47;2.42;;;16.50;99.90;;;;;;4934098;29;20094;-65
2022/11/03 13:01:47;;;;;;;6.57;2.10;;;16.70;99.90;;;;;;4954310;29;20031;-65
2022/11/03 13:04:13;;;;;;;8.73;2.28;;;16.80;99.90;;;;;;4955095;29;20565;-65
2022/11/03 13:06:39;;;;;;;6.57;2.30;;;16.90;99.90;;;;;;4947971;28;20055;-66
2022/11/03 13:09:04;;;;;;;3.83;1.65;;;16.90;99.90;;;;;;4954238;29;20043;-65
2022/11/03 13:14:14;;;;;;;4.97;2.22;;;16.80;99.90;;;;;;4946581;28;20046;-65
2022/11/03 13:16:40;;;;;;;6.28;2.25;;;16.80;99.90;;;;;;4949063;28;20043;-65